sim
Sign-in with your pilot id or email,
or register
Callsign
Passwort

Schedule Details

Flight Number: OEO1785
Departure: Karpathos Airport (LGKP) at 08:35
Arrival: Munich Airport (EDDM) at 11:50

Weather Information
Getting current METAR information for LGKP 280820Z 10005KT CAVOK 27/22 Q1018
Getting current METAR information for EDDM 280820Z VRB01KT 9999 -RA FEW005 SCT045 07/06 Q1011 NOSIG

Schedule Frequency

Route Map